FZAAHKJK

Guest
Details From FZAA - Ndjili Intl
To HKJK - Nairobi Jomo Kanyatta Intl
Flight Number -
Tags Generated
Created
Modified
Stats Distance 1,302 nm / 2,411 km
Max Altitude 0 ft / 0 m
Waypoints 4
Social Downloads 1
Likes 0
Share VATSIM

Download

Looking for another format? Having issues loading an existing format? Contact us
Advertisement - Login to hide

Notes

Generated

Route

FZAA KN R1659 HKJK

ID Type Via Altitude Latitude Longitude Leg Dist Tot Dist Heading (true) Name
O FZAA APT - 0 ft / 0 m -4.39717˚ 15.42672˚ - 0 nm - -
KN NDB - 0 ft / 0 m -2.95241˚ 25.91650˚ 634 nm 634 nm 83° / 82° KINDU NDB
R1659 FIX - 0 ft / 0 m -1.32759˚ 36.91636˚ 667 nm 1301 nm 82° / 81° -
O HKJK APT - 0 ft / 0 m -1.32774˚ 36.91612˚ 0 nm 1301 nm 238° / 238° -

Altitude Profile

Advertisement - Login to hide

Weather


0- 5 10 15 20 25 30 35+ Temperature / ° C

Clouds and Precipitation
Forecast for 2018-05-20 18:00 UTC. Updated 3 hours ago

Ground ~20,000 ft ~40,000 ft Winds

FZAA

Details ICAO FZAA (FIH)
Name NDJILI INTL
Region Democratic Republic of the Congo
Timezone Africa/Kinshasa (UTC+1.0)
Stats Elevation 1,027 ft / 313 m (AMSL)
Location -4.385750° 15.444570°
Runways 1
Magnetic Variation 1.269° W

METAR

FZAA 201900Z 32008KT 9000 FEW018 FEW028CB BKN100 26/23 Q1012 NOSIG

Decode

TAF

TAF FZAA 201700Z 2018/2124 27006KT 7000 SCT018 FEW030CB PROB30 TEMPO 2018/2022 -TSRA BECMG 2023/2101 18002KT BKN016 BECMG 2106/2108 4000 BR FM211100 30010KT 9000 NSW SCT024 FEW032CB TEMPO 2115/2120 09008G22KT 3000 TSRA SCT018SCT028CB

Decode

Departure Runways

ID Width Length Bearing (true) Bearing (mag) Surface Threshold Offset Overrun Length
06 197 ft / 60 m 15,430 ft / 4,703 m 57.32° 58.59° Concrete 0 ft / 0 m 0 ft / 0 m
24 197 ft / 60 m 15,430 ft / 4,703 m 237.32° 238.59° Concrete 0 ft / 0 m 220 ft / 67 m

HKJK

Details ICAO HKJK (NBO)
Name Nairobi Jomo Kanyatta Intl
Region Kenya
Timezone Africa/Nairobi (UTC+3.0)
Stats Elevation 5,330 ft / 1,625 m (AMSL)
Location -1.317073° 36.930757°
Runways 1
Magnetic Variation 0.590° E

METAR

HKJK 201930Z 13004KT 9999 BKN023 18/16 Q1021

Decode

TAF

TAF HKJK 201700Z 2018/2124 14005KT 9999 BKN020 BECMG 2020/2023 22005KT SCT020 BKN090 TEMPO 2100/2106 -DZ SCT006 BKN015 BECMG 2108/2111 16010KT BKN024 TEMPO 2112/2118 17010KT FEW022CB BKN023

Decode

Destination Runways

ID Width Length Bearing (true) Bearing (mag) Surface Threshold Offset Overrun Length
06 148 ft / 45 m 13,215 ft / 4,028 m 53.90° 53.31° Asphalt 0 ft / 0 m 194 ft / 59 m
24 148 ft / 45 m 13,215 ft / 4,028 m 233.90° 233.31° Asphalt 0 ft / 0 m 197 ft / 60 m

Approach Navaids

Runway Type Ident Frequency Range Bearing (true) Bearing (mag) Slope Elevation
06 Localiser INL 110.30 MHz 18 nm / 33 km 53.84° 53.25° - 5,278 ft / 1,609 m (AMSL)
06 Glidescope INL 110.30 MHz 10 nm / 19 km 53.90° 53.31° 3.00° 5,343 ft / 1,629 m (AMSL)

Popular Alternatives